Time;durP1;ratioP1;P1;durP2;ratioP2;P2;SDS_P1;SDS_P2;PMS_P1;PMS_P2;Temp;Humidity;BMP_temperature;BMP_pressure;BME280_temperature;BME280_humidity;BME280_pressure;Samples;Min_cycle;Max_cycle;Signal;HPM_P1;HPM_P2
2022/10/21 00:01:15;;;;;;;128.38;45.47;;;;;;;8.90;100.00;100855.84;12919166;22;20102;-91
2022/10/21 00:06:16;;;;;;;112.97;42.85;;;;;;;8.55;100.00;100782.69;12898298;22;20081;-86
2022/10/21 00:11:16;;;;;;;116.40;44.65;;;;;;;9.01;100.00;100857.75;12890936;22;20390;-86
2022/10/21 00:16:17;;;;;;;126.30;45.38;;;;;;;8.99;100.00;100859.91;12894904;22;20007;-86
2022/10/21 00:21:19;;;;;;;113.63;40.78;;;;;;;8.23;100.00;100725.50;12895271;22;20283;-90
2022/10/21 00:26:20;;;;;;;109.15;42.80;;;;;;;7.86;100.00;100684.69;12890178;22;20015;-91
2022/10/21 00:31:21;;;;;;;117.82;43.70;;;;;;;8.50;100.00;100785.34;12898791;22;20376;-91
2022/10/21 00:36:21;;;;;;;143.98;44.95;;;;;;;8.10;100.00;100742.19;12881767;22;20000;-91
2022/10/21 00:41:23;;;;;;;114.30;42.72;;;;;;;8.41;100.00;100814.19;12893146;22;20003;-86
2022/10/21 00:46:33;;;;;;;120.50;43.92;;;;;;;8.77;100.00;100861.63;12892952;22;20023;-86
2022/10/21 00:51:33;;;;;;;123.97;42.53;;;;;;;8.56;100.00;100849.34;12941482;22;20065;-85
2022/10/21 00:56:34;;;;;;;116.18;44.15;;;;;;;8.50;100.00;100810.03;12907185;22;20027;-86
2022/10/21 01:01:35;;;;;;;114.85;42.42;;;;;;;8.74;100.00;100846.44;12901807;22;20079;-87
2022/10/21 01:06:35;;;;;;;112.45;38.90;;;;;;;8.45;100.00;100797.03;12917492;22;20318;-86
2022/10/21 01:11:45;;;;;;;101.93;40.15;;;;;;;8.24;100.00;100790.22;12893854;22;20016;-85
2022/10/21 01:16:49;;;;;;;107.75;43.30;;;;;;;8.52;100.00;100771.38;12914603;22;20012;-91
2022/10/21 01:21:59;;;;;;;123.82;45.42;;;;;;;9.27;100.00;100899.41;12914093;22;20019;-85
2022/10/21 01:27:19;;;;;;;129.40;44.80;;;;;;;9.37;100.00;100865.81;12945781;22;20450;-91
2022/10/21 01:32:27;;;;;;;123.05;45.55;;;;;;;8.46;100.00;100738.34;12941417;22;20077;-85
2022/10/21 01:37:35;;;;;;;121.10;43.75;;;;;;;8.32;100.00;100692.19;12925376;22;20004;-86
2022/10/21 01:42:37;;;;;;;157.43;44.90;;;;;;;8.71;100.00;100747.31;12893611;22;20015;-85
2022/10/21 01:47:43;;;;;;;122.35;43.90;;;;;;;8.13;100.00;100681.41;12921005;22;20442;-91
2022/10/21 01:52:46;;;;;;;126.28;45.92;;;;;;;8.22;100.00;100638.78;12893649;22;20018;-91
2022/10/21 01:57:51;;;;;;;128.48;45.50;;;;;;;8.82;100.00;100716.22;12896931;22;20008;-85
2022/10/21 02:02:51;;;;;;;143.77;45.38;;;;;;;8.75;100.00;100699.09;12897618;22;20484;-91
2022/10/21 02:07:52;;;;;;;136.70;47.13;;;;;;;8.26;100.00;100619.94;12894677;22;20023;-92
2022/10/21 02:12:54;;;;;;;139.02;47.85;;;;;;;7.97;100.00;100534.13;12896130;22;20074;-91
2022/10/21 02:17:58;;;;;;;122.05;44.80;;;;;;;9.23;100.00;100716.94;12894979;22;20478;-91
2022/10/21 02:22:58;;;;;;;113.25;43.63;;;;;;;8.77;100.00;100631.06;12894068;22;20079;-91
2022/10/21 02:27:59;;;;;;;125.20;46.65;;;;;;;9.24;100.00;100704.84;12893861;22;20035;-92
2022/10/21 02:33:06;;;;;;;128.40;46.40;;;;;;;9.60;100.00;100738.41;12915320;22;20031;-91
2022/10/21 02:38:17;;;;;;;118.90;45.33;;;;;;;9.41;100.00;100674.66;12894453;22;20003;-92
2022/10/21 02:43:29;;;;;;;119.20;45.08;;;;;;;10.46;100.00;100823.31;12893676;22;20027;-86
2022/10/21 02:48:32;;;;;;;124.97;44.88;;;;;;;9.18;100.00;100623.47;12916775;22;20446;-85
2022/10/21 02:53:33;;;;;;;114.55;43.58;;;;;;;9.75;100.00;100724.91;12917768;22;20338;-92
2022/10/21 02:58:33;;;;;;;132.80;45.92;;;;;;;9.87;100.00;100703.63;12880334;22;20000;-86
2022/10/21 03:03:34;;;;;;;111.38;43.92;;;;;;;10.00;100.00;100698.84;12895037;22;20011;-86
2022/10/21 03:08:35;;;;;;;130.40;46.72;;;;;;;10.23;100.00;100759.13;12888536;22;20498;-86
2022/10/21 03:13:35;;;;;;;134.10;46.40;;;;;;;9.97;100.00;100671.88;12890638;22;20417;-92
2022/10/21 03:18:36;;;;;;;136.20;45.00;;;;;;;8.98;100.00;100500.44;12899457;22;20112;-86
2022/10/21 03:23:36;;;;;;;135.52;44.38;;;;;;;10.23;100.00;100659.22;12879046;22;20026;-87
2022/10/21 03:28:38;;;;;;;166.95;45.13;;;;;;;9.48;100.00;100511.25;12871801;22;20019;-92
2022/10/21 03:33:39;;;;;;;187.85;46.38;;;;;;;9.78;100.00;100567.69;12878148;22;20028;-89
2022/10/21 03:38:39;;;;;;;263.52;46.63;;;;;;;10.74;100.00;100714.06;12892649;22;20012;-87
2022/10/21 03:43:40;;;;;;;173.88;44.00;;;;;;;10.14;100.00;100627.78;12875616;22;20004;-87
2022/10/21 03:48:40;;;;;;;165.07;43.72;;;;;;;9.26;100.00;100488.44;12892529;22;20012;-87
2022/10/21 03:53:41;;;;;;;130.73;44.05;;;;;;;9.39;100.00;100488.06;12889910;22;20430;-87
2022/10/21 03:58:41;;;;;;;120.03;44.20;;;;;;;10.17;100.00;100630.84;12917883;22;20016;-86
2022/10/21 04:03:42;;;;;;;166.38;45.53;;;;;;;10.13;100.00;100582.09;12933489;22;20069;-86
2022/10/21 04:08:43;;;;;;;142.27;44.65;;;;;;;10.18;100.00;100602.25;12894821;22;20358;-92
2022/10/21 04:13:43;;;;;;;118.80;42.10;;;;;;;10.19;100.00;100603.91;12898342;22;20818;-91
2022/10/21 04:18:44;;;;;;;143.88;44.47;;;;;;;10.81;100.00;100676.13;12919201;22;20371;-86
2022/10/21 04:23:44;;;;;;;130.40;43.22;;;;;;;10.28;100.00;100607.84;12891526;22;20435;-91
2022/10/21 04:28:45;;;;;;;132.63;44.85;;;;;;;10.61;100.00;100630.78;12889078;22;20043;-85
2022/10/21 04:33:46;;;;;;;164.00;44.78;;;;;;;9.86;100.00;100527.91;12916233;22;19996;-93
2022/10/21 04:38:47;;;;;;;129.27;42.83;;;;;;;10.08;100.00;100591.94;12865402;22;20028;-92
2022/10/21 04:43:47;;;;;;;195.65;45.90;;;;;;;10.39;100.00;100600.56;12890392;22;20030;-91
2022/10/21 04:48:48;;;;;;;163.80;42.95;;;;;;;9.90;100.00;100540.88;12892799;22;20093;-86
2022/10/21 04:53:48;;;;;;;143.98;40.05;;;;;;;9.69;100.00;100506.84;12894615;22;20461;-86
2022/10/21 04:58:49;;;;;;;128.05;39.33;;;;;;;10.06;100.00;100582.31;12944066;22;20008;-86
2022/10/21 05:03:49;;;;;;;145.73;44.83;;;;;;;10.25;100.00;100654.31;12894914;22;20016;-87
2022/10/21 05:08:50;;;;;;;139.50;41.85;;;;;;;10.22;100.00;100625.41;12907699;22;20027;-92
2022/10/21 05:13:51;;;;;;;121.10;41.72;;;;;;;9.21;100.00;100474.66;12916975;22;20023;-86
2022/10/21 05:18:51;;;;;;;136.82;40.97;;;;;;;9.60;100.00;100546.03;12890935;22;20008;-92
2022/10/21 05:23:52;;;;;;;150.45;44.10;;;;;;;9.98;100.00;100640.50;12870352;22;20015;-85
2022/10/21 05:28:53;;;;;;;180.25;45.53;;;;;;;10.28;100.00;100665.63;12893906;22;20019;-86
2022/10/21 05:33:53;;;;;;;131.85;39.45;;;;;;;9.24;100.00;100502.44;12891153;22;20004;-89
2022/10/21 05:38:54;;;;;;;140.75;41.63;;;;;;;9.40;100.00;100543.84;12920597;22;20311;-91
2022/10/21 05:43:54;;;;;;;189.35;44.65;;;;;;;9.83;100.00;100641.97;12891759;22;20476;-86
2022/10/21 05:48:55;;;;;;;140.25;40.67;;;;;;;9.91;100.00;100640.72;12890698;22;20033;-91
2022/10/21 05:53:57;;;;;;;207.95;41.40;;;;;;;9.62;100.00;100590.59;12894898;22;20015;-91
2022/10/21 05:58:57;;;;;;;131.05;42.22;;;;;;;9.71;100.00;100624.78;12890574;22;20118;-86
2022/10/21 06:03:58;;;;;;;125.80;40.40;;;;;;;9.46;100.00;100595.84;12914129;22;20034;-86
2022/10/21 06:08:59;;;;;;;211.20;43.15;;;;;;;9.83;100.00;100660.41;12895555;22;20488;-91
2022/10/21 06:14:01;;;;;;;152.93;42.05;;;;;;;9.75;100.00;100631.41;12869117;22;20022;-91
2022/10/21 06:19:01;;;;;;;154.65;42.28;;;;;;;9.80;100.00;100645.25;12895821;22;20091;-86
2022/10/21 06:24:02;;;;;;;150.25;41.53;;;;;;;8.99;100.00;100524.03;12915925;22;19984;-92
2022/10/21 06:29:03;;;;;;;229.55;47.28;;;;;;;9.26;100.00;100573.59;12898892;22;20108;-91
2022/10/21 06:34:03;;;;;;;210.38;44.22;;;;;;;9.13;100.00;100579.44;12891855;22;20499;-86
2022/10/21 06:39:05;;;;;;;154.85;43.08;;;;;;;8.94;100.00;100527.56;12888009;22;20378;-92
2022/10/21 06:44:05;;;;;;;136.73;42.85;;;;;;;9.57;100.00;100629.81;12889420;22;20000;-90
2022/10/21 06:49:06;;;;;;;167.48;45.42;;;;;;;9.67;100.00;100656.59;12890987;22;20016;-86
2022/10/21 06:54:06;;;;;;;165.82;43.05;;;;;;;8.41;100.00;100465.81;12913757;22;20487;-86
2022/10/21 06:59:08;;;;;;;130.40;41.65;;;;;;;8.84;100.00;100516.41;12890034;22;20010;-91
2022/10/21 07:04:09;;;;;;;126.38;41.05;;;;;;;9.20;100.00;100569.09;12875281;22;20008;-91
2022/10/21 07:09:09;;;;;;;146.05;41.38;;;;;;;10.15;100.00;100688.06;12888959;22;20015;-86
2022/10/21 07:14:11;;;;;;;152.75;44.17;;;;;;;10.10;100.00;100694.28;12918415;22;20026;-90
2022/10/21 07:19:12;;;;;;;171.25;44.25;;;;;;;9.22;100.00;100567.78;12877516;22;20016;-90
2022/10/21 07:24:12;;;;;;;220.20;47.35;;;;;;;9.37;100.00;100558.94;12890625;22;20000;-91
2022/10/21 07:29:13;;;;;;;143.55;43.45;;;;;;;8.99;100.00;100505.69;12889583;22;20331;-86
2022/10/21 07:34:13;;;;;;;133.35;43.42;;;;;;;9.94;100.00;100661.34;12891756;22;20075;-86
2022/10/21 07:39:15;;;;;;;164.85;48.20;;;;;;;10.42;100.00;100674.38;12941603;22;20004;-90
2022/10/21 07:44:16;;;;;;;161.73;48.28;;;;;;;10.47;100.00;100698.34;12899287;22;20422;-86
2022/10/21 07:49:17;;;;;;;160.57;46.90;;;;;;;9.53;100.00;100480.28;12916174;22;20069;-86
2022/10/21 07:54:18;;;;;;;126.53;44.92;;;;;;;10.04;100.00;100535.78;12891483;22;20010;-87
2022/10/21 07:59:18;;;;;;;193.48;49.63;;;;;;;11.00;100.00;100663.66;12892616;22;20000;-86
2022/10/21 08:04:20;;;;;;;138.80;48.72;;;;;;;11.77;100.00;100781.94;12889644;22;20007;-92
2022/10/21 08:09:21;;;;;;;138.88;45.95;;;;;;;11.49;100.00;100726.88;12889480;22;20087;-91
2022/10/21 08:14:21;;;;;;;158.45;50.70;;;;;;;11.26;100.00;100637.09;12890125;22;20040;-91
2022/10/21 08:19:28;;;;;;;153.65;49.30;;;;;;;11.39;100.00;100632.22;12889792;22;20074;-87
2022/10/21 08:24:29;;;;;;;114.18;41.75;;;;;;;11.71;100.00;100657.78;12893580;22;20000;-92
2022/10/21 08:29:29;;;;;;;123.35;43.55;;;;;;;12.05;100.00;100706.28;12846143;22;20020;-88
2022/10/21 08:34:30;;;;;;;109.55;42.50;;;;;;;12.37;100.00;100692.34;12890630;22;20014;-89
2022/10/21 08:39:30;;;;;;;105.22;43.05;;;;;;;11.84;100.00;100598.53;12891151;22;20045;-89
2022/10/21 08:44:49;;;;;;;94.75;38.13;;;;;;;11.88;100.00;100613.50;12892109;22;19996;-89
2022/10/21 08:49:54;;;;;;;120.43;40.60;;;;;;;11.71;100.00;100546.66;12921585;22;20020;-91
2022/10/21 08:55:03;;;;;;;104.82;40.08;;;;;;;12.63;100.00;100667.53;12920651;22;20019;-87
2022/10/21 09:00:14;;;;;;;84.00;36.10;;;;;;;11.92;100.00;100539.31;12918322;22;20069;-88
2022/10/21 09:05:36;;;;;;;80.65;35.38;;;;;;;12.57;100.00;100647.41;12894582;22;20434;-89
2022/10/21 09:10:46;;;;;;;80.75;35.53;;;;;;;13.51;100.00;100717.09;12895734;22;20023;-88
2022/10/21 09:16:15;;;;;;;94.63;37.55;;;;;;;12.43;100.00;100531.13;12939669;22;20019;-87
2022/10/21 09:21:24;;;;;;;95.28;37.90;;;;;;;13.90;100.00;100737.81;12897366;22;20084;-92
2022/10/21 09:26:41;;;;;;;63.13;30.58;;;;;;;13.69;100.00;100684.47;12860906;22;20055;-90
2022/10/21 09:31:42;;;;;;;61.63;29.63;;;;;;;13.52;100.00;100696.66;12876381;22;20027;-88
2022/10/21 09:36:47;;;;;;;67.03;31.15;;;;;;;12.89;100.00;100566.19;12875932;22;20030;-91
2022/10/21 09:41:52;;;;;;;67.30;30.67;;;;;;;12.88;100.00;100554.31;12871027;22;20019;-89
2022/10/21 09:46:53;;;;;;;58.40;28.48;;;;;;;13.22;100.00;100581.34;12888835;22;20062;-91
2022/10/21 09:51:54;;;;;;;60.33;29.20;;;;;;;13.87;100.00;100674.72;12876682;22;20016;-89
2022/10/21 09:56:59;;;;;;;57.08;26.80;;;;;;;14.03;100.00;100656.13;12846580;22;20014;-90
2022/10/21 10:02:07;;;;;;;45.97;24.50;;;;;;;13.90;100.00;100613.28;12904978;22;20011;-88
2022/10/21 10:07:30;;;;;;;42.75;22.80;;;;;;;14.82;100.00;100703.38;12864536;22;20019;-88
2022/10/21 10:12:33;;;;;;;36.58;19.98;;;;;;;15.08;100.00;100712.34;12828477;22;377679;-88
2022/10/21 10:17:36;;;;;;;27.83;16.88;;;;;;;15.13;100.00;100688.19;12886870;22;20438;-87
2022/10/21 10:22:40;;;;;;;24.38;16.05;;;;;;;14.40;100.00;100550.41;12888753;22;20003;-90
2022/10/21 10:28:08;;;;;;;25.95;15.35;;;;;;;15.70;100.00;100720.97;12866792;22;20024;-87
2022/10/21 10:33:30;;;;;;;24.80;14.93;;;;;;;14.68;100.00;100554.41;12946336;22;20012;-93
2022/10/21 10:38:37;;;;;;;22.13;12.60;;;;;;;13.75;100.00;100461.19;12886387;22;20028;-92
2022/10/21 10:43:48;;;;;;;20.50;13.43;;;;;;;14.18;100.00;100509.34;12884824;22;20056;-93
2022/10/21 10:48:49;;;;;;;19.55;13.20;;;;;;;15.20;100.00;100674.00;12880981;22;20138;-89
2022/10/21 10:54:11;;;;;;;20.55;11.95;;;;;;;15.63;100.00;100718.56;12875369;22;20035;-94
2022/10/21 10:59:22;;;;;;;19.55;11.75;;;;;;;15.19;100.00;100632.69;12946616;22;20097;-87
2022/10/21 11:04:34;;;;;;;15.43;11.60;;;;;;;14.72;100.00;100544.41;12931884;22;20012;-88
2022/10/21 11:09:35;;;;;;;14.70;10.73;;;;;;;16.10;100.00;100724.47;12819278;22;20023;-89
2022/10/21 11:14:35;;;;;;;18.15;10.98;;;;;;;15.03;100.00;100513.63;12840938;22;20016;-88
2022/10/21 11:20:06;;;;;;;19.48;10.23;;;;;;;15.82;100.00;100657.59;12878137;22;20003;-93
2022/10/21 11:25:22;;;;;;;15.18;10.68;;;;;;;15.45;100.00;100564.75;12907593;22;19999;-92
2022/10/21 11:30:27;;;;;;;17.60;11.05;;;;;;;15.52;100.00;100565.22;12875951;22;20061;-93
2022/10/21 11:35:46;;;;;;;15.63;9.77;;;;;;;16.58;100.00;100718.91;12844185;22;20020;-93
2022/10/21 11:40:58;;;;;;;16.33;9.57;;;;;;;15.45;100.00;100531.44;12937170;22;20137;-94
2022/10/21 11:46:05;;;;;;;16.85;9.93;;;;;;;16.42;100.00;100640.47;12862374;22;20004;-88
2022/10/21 11:51:30;;;;;;;13.88;9.02;;;;;;;16.77;100.00;100701.41;12936461;22;20023;-87
2022/10/21 11:56:37;;;;;;;15.98;9.30;;;;;;;16.33;100.00;100656.97;12912320;22;20365;-87
2022/10/21 12:01:46;;;;;;;;;;;;;;;16.92;100.00;100699.22;12941766;22;20015;-87
2022/10/21 12:06:50;;;;;;;14.15;9.85;;;;;;;16.90;100.00;100687.59;12903161;22;19903;-87
2022/10/21 12:11:55;;;;;;;15.40;9.50;;;;;;;15.20;100.00;100426.38;12924776;22;20026;-88
2022/10/21 12:16:59;;;;;;;14.70;9.25;;;;;;;15.49;100.00;100465.94;12872602;22;20307;-89
2022/10/21 12:22:10;;;;;;;15.05;9.90;;;;;;;15.49;100.00;100459.56;12862997;22;20031;-89
2022/10/21 12:27:41;;;;;;;15.52;9.60;;;;;;;16.90;100.00;100659.78;12875104;22;20081;-90
2022/10/21 12:33:06;;;;;;;15.93;9.60;;;;;;;16.79;100.00;100657.44;12886878;22;20023;-90
2022/10/21 12:38:22;;;;;;;20.63;9.55;;;;;;;16.72;100.00;100680.03;12912707;22;20004;-89
2022/10/21 12:43:27;;;;;;;12.43;8.45;;;;;;;15.77;100.00;100506.94;12846303;22;20141;-88
2022/10/21 12:48:33;;;;;;;14.52;9.65;;;;;;;15.22;100.00;100429.69;12857757;22;20011;-89
2022/10/21 12:53:41;;;;;;;17.90;8.70;;;;;;;15.36;100.00;100516.59;12833568;22;20004;-90
2022/10/21 12:58:44;;;;;;;15.60;10.43;;;;;;;14.88;100.00;100444.47;12841252;22;19999;-90
2022/10/21 13:04:06;;;;;;;17.80;9.90;;;;;;;16.37;100.00;100673.03;12802234;22;20015;-92
2022/10/21 13:09:32;;;;;;;15.77;9.75;;;;;;;15.26;100.00;100509.22;12877667;22;20464;-91
2022/10/21 13:14:53;;;;;;;23.58;11.70;;;;;;;15.91;100.00;100608.63;12872550;22;20024;-89
2022/10/21 13:20:18;;;;;;;15.95;9.18;;;;;;;16.35;100.00;100665.03;12900507;22;20082;-89
2022/10/21 13:25:23;;;;;;;17.35;10.15;;;;;;;15.25;100.00;100509.50;12939160;22;20015;-89
2022/10/21 13:30:36;;;;;;;14.15;9.95;;;;;;;15.61;100.00;100556.25;12913845;22;20011;-89
2022/10/21 13:35:40;;;;;;;15.02;9.60;;;;;;;16.33;100.00;100651.41;12880078;22;20356;-89
2022/10/21 13:40:45;;;;;;;18.83;10.43;;;;;;;16.06;100.00;100629.00;12943373;22;20430;-86
2022/10/21 13:45:50;;;;;;;18.38;10.95;;;;;;;15.60;100.00;100554.59;12892264;22;20023;-86
2022/10/21 13:50:52;;;;;;;15.15;10.90;;;;;;;15.34;100.00;100510.50;12890534;22;20027;-86
2022/10/21 13:56:00;;;;;;;19.33;11.82;;;;;;;15.68;100.00;100587.25;12890457;22;20068;-85
2022/10/21 14:01:09;;;;;;;17.67;10.70;;;;;;;15.76;100.00;100596.91;12889916;22;20441;-86
2022/10/21 14:06:09;;;;;;;17.00;10.82;;;;;;;15.59;100.00;100552.94;12890994;22;20000;-86
2022/10/21 14:11:20;;;;;;;19.35;12.32;;;;;;;15.40;100.00;100550.09;12889193;22;20035;-85
2022/10/21 14:16:40;;;;;;;18.35;11.93;;;;;;;16.21;100.00;100653.81;12890108;22;20012;-87
2022/10/21 14:21:42;;;;;;;17.98;10.75;;;;;;;16.01;100.00;100637.41;12905757;22;20014;-87
2022/10/21 14:26:45;;;;;;;17.58;10.88;;;;;;;15.91;100.00;100624.47;12878411;22;20004;-89
2022/10/21 14:31:48;;;;;;;16.42;10.65;;;;;;;14.95;100.00;100438.59;12849676;22;20011;-93
2022/10/21 14:37:05;;;;;;;13.40;10.38;;;;;;;15.77;100.00;100579.94;12874810;22;20327;-85
2022/10/21 14:42:20;;;;;;;18.02;10.77;;;;;;;16.04;100.00;100634.00;12869645;22;20004;-86
2022/10/21 14:47:25;;;;;;;13.23;9.18;;;;;;;15.93;100.00;100619.44;12886957;22;20004;-86
2022/10/21 14:52:45;;;;;;;17.48;10.52;;;;;;;16.38;100.00;100688.59;12798516;22;20118;-91
2022/10/21 14:58:11;;;;;;;14.70;10.35;;;;;;;15.20;100.00;100524.25;12875286;22;20008;-86
2022/10/21 15:03:43;;;;;;;14.25;10.07;;;;;;;16.16;100.00;100683.59;12768247;22;20016;-87
2022/10/21 15:09:09;;;;;;;14.48;10.23;;;;;;;16.15;100.00;100699.44;12787957;22;20362;-91
2022/10/21 15:14:13;;;;;;;17.25;9.55;;;;;;;16.10;100.00;100692.00;12890022;22;20458;-94
2022/10/21 15:19:22;;;;;;;16.02;9.73;;;;;;;14.84;100.00;100509.91;12931865;22;20007;-93
2022/10/21 15:24:39;;;;;;;13.48;8.25;;;;;;;14.70;100.00;100471.00;12885619;22;20015;-92
2022/10/21 15:29:44;;;;;;;15.05;8.98;;;;;;;14.61;100.00;100490.16;12914094;22;20094;-92
2022/10/21 15:34:45;;;;;;;12.60;7.85;;;;;;;14.79;100.00;100529.38;12912322;22;20369;-91
2022/10/21 15:39:47;;;;;;;20.00;8.65;;;;;;;14.53;100.00;100515.69;12872927;22;20031;-92
2022/10/21 15:44:48;;;;;;;17.48;8.52;;;;;;;14.54;100.00;100493.25;12887941;22;20011;-91
2022/10/21 15:49:48;;;;;;;15.35;8.60;;;;;;;14.20;100.00;100467.50;12873481;22;20012;-92
2022/10/21 15:54:49;;;;;;;12.98;8.25;;;;;;;14.69;100.00;100578.22;12875393;22;20008;-92
2022/10/21 15:59:49;;;;;;;15.77;7.20;;;;;;;14.16;100.00;100519.88;12911800;22;20448;-94
2022/10/21 16:04:52;;;;;;;15.80;7.28;;;;;;;14.58;100.00;100584.97;12888931;22;20411;-93
2022/10/21 16:09:52;;;;;;;13.27;7.07;;;;;;;15.24;100.00;100685.34;12901110;22;20073;-84
2022/10/21 16:14:53;;;;;;;12.40;7.18;;;;;;;15.33;100.00;100714.09;12967688;22;20045;-83
2022/10/21 16:19:53;;;;;;;11.45;6.97;;;;;;;15.23;100.00;100709.44;12915451;22;20435;-83
2022/10/21 16:24:54;;;;;;;16.60;7.28;;;;;;;15.17;100.00;100713.38;12854667;22;20026;-83
2022/10/21 16:29:57;;;;;;;12.95;6.82;;;;;;;14.75;100.00;100658.53;12889415;22;20023;-94
2022/10/21 16:34:57;;;;;;;12.85;7.03;;;;;;;13.79;100.00;100543.31;12888864;22;20011;-94
2022/10/21 16:39:58;;;;;;;12.55;7.38;;;;;;;13.85;100.00;100550.50;12912906;22;20023;-93
2022/10/21 16:44:58;;;;;;;13.57;8.60;;;;;;;14.00;100.00;100576.44;12859986;22;20430;-91
2022/10/21 16:50:00;;;;;;;15.98;8.52;;;;;;;14.43;100.00;100649.56;12895504;22;20027;-92
2022/10/21 16:55:00;;;;;;;18.52;8.80;;;;;;;14.07;100.00;100590.78;12893605;22;20130;-91
2022/10/21 17:00:01;;;;;;;14.30;7.93;;;;;;;14.55;100.00;100696.28;12868565;22;20004;-93
2022/10/21 17:05:02;;;;;;;15.52;8.45;;;;;;;14.59;100.00;100694.63;12892591;22;20008;-93
2022/10/21 17:10:02;;;;;;;20.10;10.15;;;;;;;13.50;100.00;100538.47;12892367;22;20019;-92
2022/10/21 17:15:03;;;;;;;14.73;8.45;;;;;;;13.87;100.00;100614.69;12881178;22;20015;-92
2022/10/21 17:20:04;;;;;;;14.48;7.88;;;;;;;14.02;100.00;100643.41;12901545;22;20014;-92
2022/10/21 17:25:05;;;;;;;19.38;8.85;;;;;;;14.29;100.00;100688.13;12904105;22;20032;-91
2022/10/21 17:30:06;;;;;;;14.23;7.15;;;;;;;14.49;100.00;100716.81;12927350;22;20020;-92
2022/10/21 17:35:13;;;;;;;16.20;8.63;;;;;;;13.72;100.00;100646.00;12894916;22;20011;-91
2022/10/21 17:40:19;;;;;;;15.07;8.02;;;;;;;13.47;100.00;100610.91;12897037;22;20004;-93
2022/10/21 17:45:20;;;;;;;14.02;8.27;;;;;;;13.25;100.00;100619.50;12898320;22;20004;-92
2022/10/21 17:50:24;;;;;;;17.27;9.05;;;;;;;13.52;100.00;100702.19;12906279;22;20023;-91
2022/10/21 17:55:25;;;;;;;15.98;8.13;;;;;;;12.89;100.00;100644.38;12905855;22;20375;-92
2022/10/21 18:00:26;;;;;;;22.02;9.63;;;;;;;13.40;100.00;100731.25;12895362;22;20326;-92
2022/10/21 18:05:27;;;;;;;20.70;10.20;;;;;;;12.85;100.00;100681.13;12896928;22;20087;-93
2022/10/21 18:10:27;;;;;;;22.20;11.35;;;;;;;13.20;100.00;100754.13;12896800;22;20027;-93
2022/10/21 18:15:28;;;;;;;21.50;11.27;;;;;;;12.97;100.00;100756.31;12895272;22;20039;-93
2022/10/21 18:20:28;;;;;;;19.27;12.20;;;;;;;12.44;100.00;100681.88;12895604;22;20012;-94
2022/10/21 18:25:29;;;;;;;23.95;13.20;;;;;;;13.59;100.00;100840.19;12897888;22;20012;-93
2022/10/21 18:30:30;;;;;;;24.48;14.75;;;;;;;12.70;100.00;100729.72;12898786;22;20092;-93
2022/10/21 18:35:30;;;;;;;25.20;15.80;;;;;;;12.19;100.00;100630.16;12895731;22;20055;-92
2022/10/21 18:40:32;;;;;;;26.27;14.90;;;;;;;13.02;100.00;100758.25;12898278;22;20061;-93
2022/10/21 18:45:32;;;;;;;31.85;16.85;;;;;;;13.08;100.00;100779.25;12921970;22;20426;-93
2022/10/21 18:50:36;;;;;;;37.10;19.13;;;;;;;12.27;100.00;100635.16;12894459;22;20019;-91
2022/10/21 18:55:38;;;;;;;36.42;18.63;;;;;;;12.19;100.00;100629.34;12918874;22;20008;-93
2022/10/21 19:00:39;;;;;;;39.03;20.13;;;;;;;12.51;100.00;100698.19;12895476;22;20351;-92
2022/10/21 19:05:41;;;;;;;40.15;20.52;;;;;;;13.26;100.00;100794.50;12895890;22;20000;-93
2022/10/21 19:10:42;;;;;;;35.58;19.83;;;;;;;12.01;100.00;100606.66;12896375;22;20019;-93
2022/10/21 19:15:42;;;;;;;38.17;19.00;;;;;;;12.89;100.00;100759.59;12897924;22;20015;-93
2022/10/21 19:20:43;;;;;;;34.05;19.85;;;;;;;12.25;100.00;100667.72;12921182;22;20031;-92
2022/10/21 19:25:43;;;;;;;42.85;22.85;;;;;;;12.30;100.00;100700.88;12895841;22;20369;-93
2022/10/21 19:30:44;;;;;;;42.75;20.20;;;;;;;12.81;100.00;100783.06;12894476;22;20019;-93
2022/10/21 19:35:45;;;;;;;43.33;21.52;;;;;;;12.48;100.00;100740.13;12904578;22;20011;-92
2022/10/21 19:40:45;;;;;;;47.38;22.75;;;;;;;12.22;100.00;100717.97;12895562;22;19996;-86
2022/10/21 19:45:46;;;;;;;42.38;22.30;;;;;;;12.55;100.00;100798.72;12911942;22;20004;-86
2022/10/21 19:50:47;;;;;;;44.78;22.30;;;;;;;12.43;100.00;100809.16;12913388;22;20469;-86
2022/10/21 19:55:47;;;;;;;57.17;22.00;;;;;;;12.15;100.00;100808.44;12914147;22;20612;-86
2022/10/21 20:00:52;;;;;;;47.08;23.15;;;;;;;11.60;100.00;100711.22;12888298;22;20053;-86
2022/10/21 20:05:53;;;;;;;59.10;25.17;;;;;;;11.36;100.00;100683.19;12914639;22;20308;-85
2022/10/21 20:11:04;;;;;;;46.05;24.30;;;;;;;11.26;100.00;100700.47;12913711;22;20015;-85
2022/10/21 20:16:05;;;;;;;57.20;24.08;;;;;;;11.63;100.00;100776.88;12886098;22;20012;-85
2022/10/21 20:21:06;;;;;;;52.55;24.00;;;;;;;11.09;100.00;100695.13;12890832;22;20079;-85
2022/10/21 20:26:07;;;;;;;48.85;23.02;;;;;;;12.14;100.00;100874.94;12890321;22;20014;-84
2022/10/21 20:31:11;;;;;;;48.28;23.80;;;;;;;11.57;100.00;100810.19;12942300;22;20043;-84
2022/10/21 20:36:29;;;;;;;49.58;23.50;;;;;;;11.79;100.00;100829.41;12917512;22;20004;-84
2022/10/21 20:41:33;;;;;;;90.15;26.20;;;;;;;10.85;100.00;100682.75;12892127;22;20006;-84
2022/10/21 20:46:34;;;;;;;74.82;24.38;;;;;;;11.39;100.00;100792.94;12893391;22;20008;-84
2022/10/21 20:51:36;;;;;;;63.63;25.00;;;;;;;11.35;100.00;100774.41;12892144;22;20016;-84
2022/10/21 20:56:37;;;;;;;53.60;24.52;;;;;;;11.85;100.00;100867.78;12868492;22;20442;-84
2022/10/21 21:01:39;;;;;;;56.33;24.05;;;;;;;11.62;100.00;100873.66;12917414;22;20007;-85
2022/10/21 21:06:44;;;;;;;87.38;27.33;;;;;;;10.32;100.00;100667.91;12890541;22;20000;-85
2022/10/21 21:11:45;;;;;;;149.35;29.80;;;;;;;11.11;100.00;100777.50;12892534;22;20016;-94
2022/10/21 21:16:45;;;;;;;67.40;28.95;;;;;;;11.29;100.00;100795.59;12866249;22;20035;-93
2022/10/21 21:21:46;;;;;;;65.50;27.15;;;;;;;10.98;100.00;100758.66;12915541;22;20011;-91
2022/10/21 21:26:46;;;;;;;53.30;27.17;;;;;;;10.38;100.00;100653.13;12898634;22;20059;-91
2022/10/21 21:31:47;;;;;;;89.50;28.58;;;;;;;11.02;100.00;100773.56;12900120;22;20106;-91
2022/10/21 21:36:47;;;;;;;67.60;26.85;;;;;;;11.04;100.00;100786.00;12875305;22;20000;-91
2022/10/21 21:41:48;;;;;;;120.55;32.83;;;;;;;11.71;100.00;100866.56;12925086;22;20000;-91
2022/10/21 21:46:49;;;;;;;87.55;30.98;;;;;;;11.49;100.00;100863.88;12907256;22;20042;-91
2022/10/21 21:51:49;;;;;;;143.95;32.67;;;;;;;10.62;100.00;100717.78;12908802;22;20054;-91
2022/10/21 21:56:50;;;;;;;123.85;31.00;;;;;;;10.98;100.00;100775.19;12907247;22;20019;-92
2022/10/21 22:01:51;;;;;;;67.75;30.05;;;;;;;10.99;100.00;100791.44;12909796;22;20019;-91
2022/10/21 22:06:52;;;;;;;61.33;31.17;;;;;;;10.98;100.00;100792.53;12921239;22;20457;-91
2022/10/21 22:11:52;;;;;;;89.35;34.25;;;;;;;11.01;100.00;100803.03;12921834;22;20022;-91
2022/10/21 22:16:53;;;;;;;77.03;33.22;;;;;;;10.64;100.00;100743.13;12892779;22;20023;-92
2022/10/21 22:21:54;;;;;;;79.43;33.08;;;;;;;11.15;100.00;100819.16;12918871;22;20008;-94
2022/10/21 22:26:54;;;;;;;80.10;32.65;;;;;;;10.84;100.00;100786.59;12896331;22;20008;-93
2022/10/21 22:31:55;;;;;;;70.43;30.90;;;;;;;10.61;100.00;100751.91;12866235;22;20046;-85